createdAt,value
2022-12-17T00:01:51.731Z,95334.03
2022-12-17T00:04:53.861Z,95344.63
2022-12-17T00:07:59.134Z,95348.50
2022-12-17T00:11:02.872Z,95347.13
2022-12-17T00:14:05.217Z,95344.72
2022-12-17T00:17:08.409Z,95355.06
2022-12-17T00:20:13.344Z,95361.91
2022-12-17T00:23:15.230Z,95367.69
2022-12-17T00:26:17.112Z,95371.44
2022-12-17T00:29:19.592Z,95366.63
2022-12-17T00:32:24.184Z,95379.03
2022-12-17T00:35:26.157Z,95378.38
2022-12-17T00:38:28.061Z,95398.94
2022-12-17T00:41:31.108Z,95397.81
2022-12-17T00:44:33.023Z,95397.13
2022-12-17T00:47:36.279Z,95406.41
2022-12-17T00:50:38.260Z,95401.84
2022-12-17T00:53:40.774Z,95408.31
2022-12-17T00:56:42.844Z,95408.38
2022-12-17T00:59:46.706Z,95406.56
2022-12-17T01:02:52.089Z,95418.25
2022-12-17T01:05:54.353Z,95426.25
2022-12-17T01:08:56.499Z,95426.19
2022-12-17T01:11:58.466Z,95423.84
2022-12-17T01:15:02.182Z,95422.56
2022-12-17T01:18:05.606Z,95425.47
2022-12-17T01:21:07.447Z,95435.28
2022-12-17T01:24:09.494Z,95434.31
2022-12-17T01:27:12.054Z,95433.34
2022-12-17T01:30:13.983Z,95436.97
2022-12-17T01:33:17.238Z,95445.97
2022-12-17T01:36:19.474Z,95451.31
2022-12-17T01:39:21.408Z,95452.91
2022-12-17T01:42:23.539Z,95459.09
2022-12-17T01:45:28.631Z,95454.88
2022-12-17T01:48:37.097Z,95470.84
2022-12-17T01:51:39.005Z,95463.91
2022-12-17T01:54:45.822Z,95463.72
2022-12-17T01:57:47.892Z,95477.44
2022-12-17T02:00:50.170Z,95473.78
2022-12-17T02:03:54.551Z,95472.53
2022-12-17T02:07:08.432Z,95474.91
2022-12-17T02:10:22.740Z,95488.59
2022-12-17T02:13:32.529Z,95491.25
2022-12-17T02:16:42.238Z,95496.28
2022-12-17T02:19:55.360Z,95503.72
2022-12-17T02:23:05.486Z,95490.19
2022-12-17T02:26:13.276Z,95500.75
2022-12-17T02:29:18.259Z,95493.22
2022-12-17T02:32:22.283Z,95501.59
2022-12-17T02:35:28.280Z,95496.31
2022-12-17T02:38:31.693Z,95514.50
2022-12-17T02:41:42.644Z,95508.72
2022-12-17T02:44:47.342Z,95508.25
2022-12-17T02:47:50.989Z,95525.09
2022-12-17T02:50:53.323Z,95531.75
2022-12-17T02:53:55.176Z,95533.34
2022-12-17T02:56:58.556Z,95545.09
2022-12-17T03:00:01.988Z,95539.41
2022-12-17T03:03:04.153Z,95542.63
2022-12-17T03:06:06.440Z,95555.88
2022-12-17T03:09:12.215Z,95560.59
2022-12-17T03:12:14.144Z,95562.34
2022-12-17T03:15:17.409Z,95572.53
2022-12-17T03:18:19.504Z,95576.06
2022-12-17T03:21:21.541Z,95571.75
2022-12-17T03:24:23.381Z,95576.06
2022-12-17T03:27:25.274Z,95583.44
2022-12-17T03:30:31.041Z,95584.69
2022-12-17T03:33:37.196Z,95585.09
2022-12-17T03:36:39.310Z,95594.59
2022-12-17T03:39:41.210Z,95599.19
2022-12-17T03:42:43.069Z,95592.31
2022-12-17T03:45:53.359Z,95586.66
2022-12-17T03:48:55.250Z,95592.91
2022-12-17T03:51:57.144Z,95599.78
2022-12-17T03:54:59.041Z,95603.47
2022-12-17T03:58:00.917Z,95603.22
2022-12-17T04:01:06.134Z,95617.31
2022-12-17T04:04:08.021Z,95605.94
2022-12-17T04:07:10.043Z,95622.50
2022-12-17T04:10:11.929Z,95621.53
2022-12-17T04:13:13.784Z,95617.41
2022-12-17T04:16:17.103Z,95630.03
2022-12-17T04:19:19.084Z,95638.06
2022-12-17T04:22:20.976Z,95638.38
2022-12-17T04:25:22.825Z,95632.13
2022-12-17T04:28:24.742Z,95639.44
2022-12-17T04:31:29.230Z,95643.59
2022-12-17T04:34:31.131Z,95645.81
2022-12-17T04:37:33.062Z,95647.09
2022-12-17T04:40:34.887Z,95661.91
2022-12-17T04:43:36.950Z,95658.09
2022-12-17T04:46:40.471Z,95666.22
2022-12-17T04:49:42.396Z,95665.63
2022-12-17T04:52:44.303Z,95667.00
2022-12-17T04:55:46.330Z,95661.69
2022-12-17T04:58:48.224Z,95667.97
2022-12-17T05:01:51.631Z,95673.75
2022-12-17T05:04:53.555Z,95678.19
2022-12-17T05:07:55.998Z,95676.22
2022-12-17T05:11:01.953Z,95673.41
2022-12-17T05:14:03.907Z,95680.13
2022-12-17T05:17:10.287Z,95689.84
2022-12-17T05:20:12.186Z,95692.38
2022-12-17T05:23:14.090Z,95702.38
2022-12-17T05:26:20.248Z,95704.00
2022-12-17T05:29:22.238Z,95711.94
2022-12-17T05:32:25.560Z,95711.66
2022-12-17T05:35:27.469Z,95718.91
2022-12-17T05:38:29.407Z,95722.75
2022-12-17T05:41:31.338Z,95727.75
2022-12-17T05:44:33.389Z,95735.31
2022-12-17T05:47:36.764Z,95736.09
2022-12-17T05:50:38.613Z,95744.22
2022-12-17T05:53:40.494Z,95758.16
2022-12-17T05:56:42.332Z,95756.50
2022-12-17T05:59:44.253Z,95759.16
2022-12-17T06:02:47.638Z,95761.09
2022-12-17T06:05:54.105Z,95762.25
2022-12-17T06:08:55.973Z,95768.03
2022-12-17T06:12:02.625Z,95775.41
2022-12-17T06:15:08.392Z,95772.63
2022-12-17T06:18:16.513Z,95782.09
2022-12-17T06:21:19.058Z,95777.16
2022-12-17T06:24:20.939Z,95782.94
2022-12-17T06:27:22.818Z,95783.59
2022-12-17T06:30:24.701Z,95785.28
2022-12-17T06:33:28.083Z,95796.63
2022-12-17T06:36:29.915Z,95797.16
2022-12-17T06:39:31.783Z,95801.28
2022-12-17T06:42:33.574Z,95809.22
2022-12-17T06:45:35.493Z,95806.00
2022-12-17T06:48:39.032Z,95812.84
2022-12-17T06:51:40.942Z,95818.34
2022-12-17T06:54:45.825Z,95822.50
2022-12-17T06:57:50.555Z,95830.09
2022-12-17T07:00:52.683Z,95828.22
2022-12-17T07:03:56.090Z,95837.13
2022-12-17T07:06:57.976Z,95841.41
2022-12-17T07:09:59.839Z,95845.63
2022-12-17T07:13:05.439Z,95858.88
2022-12-17T07:16:07.585Z,95856.72
2022-12-17T07:19:10.974Z,95857.59
2022-12-17T07:22:13.048Z,95869.75
2022-12-17T07:25:15.033Z,95876.03
2022-12-17T07:28:16.894Z,95878.66
2022-12-17T07:31:18.812Z,95876.53
2022-12-17T07:34:22.095Z,95875.66
2022-12-17T07:37:24.029Z,95888.97
2022-12-17T07:40:25.867Z,95885.81
2022-12-17T07:43:27.731Z,95896.28
2022-12-17T07:46:29.571Z,95897.75
2022-12-17T07:49:32.831Z,95894.78
2022-12-17T07:52:34.819Z,95895.00
2022-12-17T07:55:36.901Z,95904.78
2022-12-17T07:58:39.429Z,95917.72
2022-12-17T08:01:41.392Z,95912.91
2022-12-17T08:04:46.482Z,95918.94
2022-12-17T08:07:48.321Z,95928.66
2022-12-17T08:10:50.253Z,95919.09
2022-12-17T08:13:52.123Z,95936.09
2022-12-17T08:16:54.076Z,95923.94
2022-12-17T08:19:57.335Z,95935.16
2022-12-17T08:23:02.795Z,95933.97
2022-12-17T08:26:06.371Z,95939.47
2022-12-17T08:29:08.553Z,95937.53
2022-12-17T08:32:10.626Z,95942.75
2022-12-17T08:35:14.044Z,95950.47
2022-12-17T08:38:15.895Z,95951.41
2022-12-17T08:41:17.775Z,95958.72
2022-12-17T08:44:19.625Z,95967.00
2022-12-17T08:47:21.513Z,95969.44
2022-12-17T08:50:25.808Z,95972.38
2022-12-17T08:53:30.685Z,95970.66
2022-12-17T08:56:36.474Z,95982.66
2022-12-17T08:59:38.376Z,95984.31
2022-12-17T09:02:40.458Z,95982.72
2022-12-17T09:05:44.071Z,95988.75
2022-12-17T09:08:46.449Z,95988.59
2022-12-17T09:11:48.408Z,95989.91
2022-12-17T09:14:50.321Z,95998.31
2022-12-17T09:17:52.411Z,96006.91
2022-12-17T09:20:57.511Z,96004.94
2022-12-17T09:23:59.369Z,96007.47
2022-12-17T09:27:01.621Z,96020.47
2022-12-17T09:30:03.855Z,96016.44
2022-12-17T09:33:05.993Z,96017.91
2022-12-17T09:36:09.933Z,96020.88
2022-12-17T09:39:11.823Z,96022.19
2022-12-17T09:42:20.479Z,96014.72
2022-12-17T09:45:27.760Z,96022.81
2022-12-17T09:48:36.022Z,96023.53
2022-12-17T09:51:39.424Z,96020.06
2022-12-17T09:54:45.491Z,96022.44
2022-12-17T09:57:49.439Z,96027.91
2022-12-17T10:00:57.681Z,96024.53
2022-12-17T10:04:04.085Z,96032.03
2022-12-17T10:07:13.433Z,96033.56
2022-12-17T10:10:19.092Z,96037.19
2022-12-17T10:13:23.254Z,96042.63
2022-12-17T10:16:28.254Z,96043.13
2022-12-17T10:19:34.316Z,96041.31
2022-12-17T10:22:45.002Z,96048.38
2022-12-17T10:25:50.904Z,96057.06
2022-12-17T10:29:02.340Z,96060.44
2022-12-17T10:32:10.812Z,96066.69
2022-12-17T10:35:19.015Z,96073.47
2022-12-17T10:38:24.746Z,96073.81
2022-12-17T10:41:28.333Z,96077.63
2022-12-17T10:44:33.808Z,96090.06
2022-12-17T10:47:35.710Z,96078.88
2022-12-17T10:50:41.713Z,96082.94
2022-12-17T10:53:49.561Z,96082.03
2022-12-17T10:56:53.625Z,96079.28
2022-12-17T10:59:55.558Z,96078.81
2022-12-17T11:02:59.406Z,96085.84
2022-12-17T11:06:01.690Z,96078.09
2022-12-17T11:09:05.250Z,96078.06
2022-12-17T11:12:10.321Z,96078.25
2022-12-17T11:15:20.357Z,96081.38
2022-12-17T11:18:27.575Z,96081.22
2022-12-17T11:21:34.891Z,96095.09
2022-12-17T11:24:42.204Z,96086.16
2022-12-17T11:27:48.523Z,96093.94
2022-12-17T11:30:58.279Z,96094.00
2022-12-17T11:34:06.530Z,96093.59
2022-12-17T11:37:17.831Z,96096.34
2022-12-17T11:40:30.608Z,96100.72
2022-12-17T11:43:45.181Z,96104.47
2022-12-17T11:46:55.020Z,96095.94
2022-12-17T11:50:13.217Z,96097.50
2022-12-17T11:53:28.345Z,96092.94
2022-12-17T11:56:37.786Z,96100.59
2022-12-17T11:59:50.960Z,96104.31
2022-12-17T12:03:09.256Z,96113.72
2022-12-17T12:06:17.958Z,96125.41
2022-12-17T12:09:28.923Z,96130.56
2022-12-17T12:12:45.084Z,96141.88
2022-12-17T12:16:01.035Z,96129.91
2022-12-17T12:19:13.092Z,96130.88
2022-12-17T12:22:19.192Z,96127.66
2022-12-17T12:25:37.025Z,96128.88
2022-12-17T12:28:47.543Z,96120.56
2022-12-17T12:31:57.243Z,96118.59
2022-12-17T12:35:03.100Z,96124.84
2022-12-17T12:38:05.687Z,96114.41
2022-12-17T12:41:19.832Z,96121.59
2022-12-17T12:44:34.531Z,96119.88
2022-12-17T12:47:47.814Z,96121.72
2022-12-17T12:50:57.923Z,96125.13
2022-12-17T12:54:02.085Z,96133.41
2022-12-17T12:57:04.130Z,96128.84
2022-12-17T13:00:25.036Z,96118.91
2022-12-17T13:03:33.724Z,96126.59
2022-12-17T13:06:42.143Z,96127.50
2022-12-17T13:09:48.732Z,96131.34
2022-12-17T13:12:51.927Z,96134.75
2022-12-17T13:15:59.812Z,96141.72
2022-12-17T13:19:03.746Z,96141.59
2022-12-17T13:22:27.708Z,96146.28
2022-12-17T13:25:29.719Z,96151.59
2022-12-17T13:28:39.877Z,96152.31
2022-12-17T13:31:53.674Z,96166.63
2022-12-17T13:35:10.249Z,96174.25
2022-12-17T13:38:21.294Z,96183.72
2022-12-17T13:41:28.701Z,96175.88
2022-12-17T13:44:38.664Z,96181.84
2022-12-17T13:47:41.929Z,96188.13
2022-12-17T13:50:53.775Z,96188.22
2022-12-17T13:53:57.722Z,96195.25
2022-12-17T13:57:14.901Z,96195.44
2022-12-17T14:00:23.308Z,96201.44
2022-12-17T14:03:43.418Z,96202.56
2022-12-17T14:06:51.556Z,96217.34
2022-12-17T14:09:54.449Z,96207.09
2022-12-17T14:13:06.036Z,96216.09
2022-12-17T14:16:09.042Z,96218.44
2022-12-17T14:19:12.576Z,96219.50
2022-12-17T14:22:19.783Z,96224.53
2022-12-17T14:25:24.953Z,96225.44
2022-12-17T14:28:32.116Z,96227.53
2022-12-17T14:31:35.202Z,96240.22
2022-12-17T14:34:42.688Z,96250.16
2022-12-17T14:37:47.272Z,96244.03
2022-12-17T14:40:54.000Z,96254.69
2022-12-17T14:43:57.542Z,96255.97
2022-12-17T14:47:11.868Z,96262.59
2022-12-17T14:50:30.438Z,96262.31
2022-12-17T14:53:32.379Z,96263.47
2022-12-17T14:56:34.245Z,96267.94
2022-12-17T14:59:37.856Z,96272.75
2022-12-17T15:02:42.362Z,96275.13
2022-12-17T15:05:48.856Z,96271.34
2022-12-17T15:08:51.888Z,96275.00
2022-12-17T15:11:53.826Z,96288.38
2022-12-17T15:14:55.871Z,96297.63
2022-12-17T15:17:57.896Z,96301.50
2022-12-17T15:21:02.081Z,96298.59
2022-12-17T15:24:04.631Z,96304.22
2022-12-17T15:27:06.598Z,96309.38
2022-12-17T15:30:15.877Z,96306.53
2022-12-17T15:33:17.991Z,96308.56
2022-12-17T15:36:21.460Z,96310.38
2022-12-17T15:39:23.495Z,96314.28
2022-12-17T15:42:25.406Z,96312.88
2022-12-17T15:45:27.502Z,96307.25
2022-12-17T15:48:29.741Z,96323.13
2022-12-17T15:51:33.096Z,96318.28
2022-12-17T15:54:35.308Z,96316.53
2022-12-17T15:57:37.770Z,96315.72
2022-12-17T16:00:39.850Z,96329.13
2022-12-17T16:03:42.700Z,96335.97
2022-12-17T16:06:46.609Z,96337.25
2022-12-17T16:09:48.786Z,96340.97
2022-12-17T16:12:50.676Z,96338.25
2022-12-17T16:16:00.768Z,96346.72
2022-12-17T16:19:05.830Z,96344.28
2022-12-17T16:22:09.541Z,96338.78
2022-12-17T16:25:12.188Z,96347.78
2022-12-17T16:28:16.432Z,96340.59
2022-12-17T16:31:19.244Z,96340.22
2022-12-17T16:34:21.662Z,96350.88
2022-12-17T16:37:25.472Z,96346.63
2022-12-17T16:40:28.060Z,96350.50
2022-12-17T16:43:34.978Z,96355.84
2022-12-17T16:46:38.429Z,96353.69
2022-12-17T16:49:40.804Z,96358.97
2022-12-17T16:52:45.021Z,96355.56
2022-12-17T16:55:59.856Z,96360.94
2022-12-17T16:59:04.876Z,96357.47
2022-12-17T17:02:12.721Z,96364.06
2022-12-17T17:05:15.626Z,96363.56
2022-12-17T17:08:19.207Z,96363.09
2022-12-17T17:11:23.460Z,96364.50
2022-12-17T17:14:26.220Z,96365.28
2022-12-17T17:17:55.406Z,96371.13
2022-12-17T17:20:50.813Z,96373.22
2022-12-17T17:23:57.327Z,96373.22
2022-12-17T17:26:59.595Z,96375.31
2022-12-17T17:30:03.835Z,96367.94
2022-12-17T17:33:06.108Z,96381.16
2022-12-17T17:36:10.819Z,96382.72
2022-12-17T17:39:17.148Z,96379.81
2022-12-17T17:42:19.248Z,96377.72
2022-12-17T17:45:21.492Z,96382.25
2022-12-17T17:48:23.471Z,96386.25
2022-12-17T17:51:59.975Z,96397.84
2022-12-17T17:54:52.105Z,96398.13
2022-12-17T17:57:54.171Z,96404.47
2022-12-17T18:00:56.381Z,96397.56
2022-12-17T18:04:05.046Z,96396.50
2022-12-17T18:10:33.122Z,96411.88
2022-12-17T18:13:35.709Z,96416.94
2022-12-17T18:16:40.314Z,96409.84
2022-12-17T18:19:42.547Z,96413.56
2022-12-17T18:22:45.347Z,96405.41
2022-12-17T18:25:50.673Z,96417.00
2022-12-17T18:28:53.128Z,96424.41
2022-12-17T18:31:55.865Z,96423.88
2022-12-17T18:34:57.874Z,96426.22
2022-12-17T18:38:02.201Z,96433.38
2022-12-17T18:41:12.951Z,96436.81
2022-12-17T18:44:16.110Z,96436.34
2022-12-17T18:47:18.098Z,96430.56
2022-12-17T18:50:20.071Z,96427.63
2022-12-17T18:53:22.103Z,96436.69
2022-12-17T18:56:52.617Z,96437.50
2022-12-17T18:59:49.397Z,96445.16
2022-12-17T19:02:51.575Z,96448.34
2022-12-17T19:05:54.520Z,96452.88
2022-12-17T19:08:59.646Z,96450.72
2022-12-17T19:12:05.564Z,96446.56
2022-12-17T19:15:09.091Z,96457.06
2022-12-17T19:18:11.360Z,96455.59
2022-12-17T19:21:13.713Z,96458.63
2022-12-17T19:24:19.731Z,96458.13
2022-12-17T19:27:25.633Z,96457.03
2022-12-17T19:30:27.738Z,96462.66
2022-12-17T19:33:30.457Z,96468.88
2022-12-17T19:36:34.086Z,96476.75
2022-12-17T19:39:40.441Z,96478.38
2022-12-17T19:42:44.238Z,96465.78
2022-12-17T19:45:46.687Z,96462.94
2022-12-17T19:48:49.760Z,96474.56
2022-12-17T19:51:54.022Z,96475.69
2022-12-17T19:54:56.845Z,96481.78
2022-12-17T19:58:00.693Z,96487.41
2022-12-17T20:01:06.533Z,96486.75
2022-12-17T20:04:12.433Z,96489.75
2022-12-17T20:07:14.399Z,96491.09
2022-12-17T20:10:17.297Z,96502.28
2022-12-17T20:13:23.350Z,96505.47
2022-12-17T20:16:28.439Z,96504.94
2022-12-17T20:19:32.624Z,96504.44
2022-12-17T20:22:34.836Z,96516.31
2022-12-17T20:25:37.532Z,96506.84
2022-12-17T20:28:41.510Z,96511.88
2022-12-17T20:31:49.439Z,96513.19
2022-12-17T20:34:52.671Z,96508.97
2022-12-17T20:37:55.344Z,96510.25
2022-12-17T20:40:57.396Z,96515.56
2022-12-17T20:44:03.924Z,96509.50
2022-12-17T20:47:06.112Z,96512.16
2022-12-17T20:50:11.290Z,96502.66
2022-12-17T20:53:13.246Z,96506.88
2022-12-17T20:56:17.715Z,96515.31
2022-12-17T20:59:21.071Z,96510.31
2022-12-17T21:02:25.556Z,96520.34
2022-12-17T21:05:28.169Z,96520.59
2022-12-17T21:08:31.786Z,96521.16
2022-12-17T21:11:36.283Z,96525.38
2022-12-17T21:14:39.939Z,96530.13
2022-12-17T21:17:41.901Z,96534.63
2022-12-17T21:20:44.091Z,96544.91
2022-12-17T21:23:47.034Z,96536.19
2022-12-17T21:26:49.691Z,96540.44
2022-12-17T21:29:53.361Z,96537.25
2022-12-17T21:32:55.522Z,96539.66
2022-12-17T21:36:01.812Z,96541.75
2022-12-17T21:39:12.351Z,96551.28
2022-12-17T21:42:14.371Z,96549.94
2022-12-17T21:45:17.946Z,96544.66
2022-12-17T21:48:20.146Z,96556.03
2022-12-17T21:51:22.675Z,96552.06
2022-12-17T21:54:25.650Z,96551.00
2022-12-17T21:57:27.593Z,96544.91
2022-12-17T22:00:30.928Z,96556.28
2022-12-17T22:03:32.828Z,96563.19
2022-12-17T22:06:37.407Z,96555.78
2022-12-17T22:10:10.695Z,96556.56
2022-12-17T22:13:11.480Z,96562.38
2022-12-17T22:16:15.143Z,96563.19
2022-12-17T22:19:22.643Z,96564.75
2022-12-17T22:22:24.726Z,96565.00
2022-12-17T22:25:29.151Z,96557.63
2022-12-17T22:28:31.089Z,96558.69
2022-12-17T22:31:37.910Z,96550.75
2022-12-17T22:36:05.590Z,96555.50
2022-12-17T22:41:51.458Z,96547.34
2022-12-17T22:44:39.292Z,96543.09
2022-12-17T22:44:53.252Z,96551.28
2022-12-17T22:47:57.398Z,96553.66
2022-12-17T22:51:13.983Z,96556.56
2022-12-17T22:54:20.600Z,96560.28
2022-12-17T22:57:36.024Z,96559.47
2022-12-17T23:00:39.840Z,96565.81
2022-12-17T23:03:43.964Z,96555.25
2022-12-17T23:06:46.571Z,96561.31
2022-12-17T23:09:50.026Z,96569.78
2022-12-17T23:12:54.462Z,96563.72
2022-12-17T23:15:56.414Z,96567.41
2022-12-17T23:19:00.534Z,96568.97
2022-12-17T23:22:02.878Z,96575.03
2022-12-17T23:25:05.636Z,96576.91
2022-12-17T23:28:07.608Z,96581.16
2022-12-17T23:31:11.557Z,96580.91
2022-12-17T23:34:15.348Z,96572.97
2022-12-17T23:37:17.521Z,96556.31
2022-12-17T23:40:19.553Z,96561.59
2022-12-17T23:43:21.561Z,96570.03
2022-12-17T23:46:25.467Z,96575.06
2022-12-17T23:49:28.839Z,96573.75
2022-12-17T23:52:32.205Z,96576.38
2022-12-17T23:55:34.257Z,96575.84
2022-12-17T23:58:37.815Z,96567.41
